createdAt,value
2019-02-28T00:01:27.650Z,24.53
2019-02-28T00:03:54.288Z,25.13
2019-02-28T00:06:20.862Z,28.17
2019-02-28T00:08:47.519Z,21.80
2019-02-28T00:11:15.509Z,22.70
2019-02-28T00:13:42.166Z,25.20
2019-02-28T00:16:08.742Z,25.70
2019-02-28T00:18:35.320Z,24.33
2019-02-28T00:21:05.777Z,26.17
2019-02-28T00:23:30.743Z,28.80
2019-02-28T00:25:57.526Z,25.90
2019-02-28T00:28:25.916Z,26.07
2019-02-28T00:30:52.530Z,27.23
2019-02-28T00:33:19.262Z,23.50
2019-02-28T00:35:45.864Z,23.77
2019-02-28T00:38:12.824Z,28.27
2019-02-28T00:40:39.513Z,23.63
2019-02-28T00:43:06.096Z,22.73
2019-02-28T00:45:36.274Z,22.40
2019-02-28T00:48:01.525Z,25.40
2019-02-28T00:50:28.479Z,24.97
2019-02-28T00:52:55.078Z,22.57
2019-02-28T00:55:21.744Z,24.20
2019-02-28T00:57:48.314Z,25.47
2019-02-28T01:00:15.392Z,28.03
2019-02-28T01:02:44.233Z,29.53
2019-02-28T01:05:11.062Z,29.50
2019-02-28T01:07:37.764Z,28.73
2019-02-28T01:10:04.631Z,24.80
2019-02-28T01:12:31.846Z,25.23
2019-02-28T01:14:58.457Z,24.83
2019-02-28T01:17:26.729Z,20.73
2019-02-28T01:19:53.871Z,25.60
2019-02-28T01:22:20.481Z,22.20
2019-02-28T01:24:47.777Z,26.47
2019-02-28T01:27:17.322Z,25.43
2019-02-28T01:29:42.948Z,25.77
2019-02-28T01:32:15.347Z,23.20
2019-02-28T01:34:39.289Z,26.13
2019-02-28T01:37:05.965Z,27.50
2019-02-28T01:39:33.871Z,23.30
2019-02-28T01:42:00.631Z,24.47
2019-02-28T01:44:27.301Z,25.93
2019-02-28T01:46:53.894Z,25.63
2019-02-28T01:49:20.935Z,23.57
2019-02-28T01:51:47.540Z,24.97
2019-02-28T01:54:14.488Z,29.53
2019-02-28T01:56:42.704Z,22.77
2019-02-28T01:59:09.323Z,27.57
2019-02-28T02:01:35.895Z,22.67
2019-02-28T02:04:02.584Z,27.73
2019-02-28T02:06:29.067Z,29.03
2019-02-28T02:08:55.593Z,28.60
2019-02-28T02:11:22.159Z,28.30
2019-02-28T02:13:48.738Z,25.83
2019-02-28T02:16:15.417Z,25.10
2019-02-28T02:18:43.338Z,26.07
2019-02-28T02:21:10.829Z,24.47
2019-02-28T02:23:37.412Z,29.47
2019-02-28T02:26:04.426Z,23.63
2019-02-28T02:28:31.170Z,23.87
2019-02-28T02:30:58.084Z,30.67
2019-02-28T02:33:24.715Z,20.83
2019-02-28T02:35:51.272Z,24.27
2019-02-28T02:38:17.827Z,24.70
2019-02-28T02:40:44.834Z,24.03
2019-02-28T02:43:11.381Z,23.37
2019-02-28T02:45:41.901Z,24.43
2019-02-28T02:48:06.982Z,26.07
2019-02-28T02:50:36.067Z,28.23
2019-02-28T02:53:05.528Z,25.80
2019-02-28T02:55:30.864Z,28.17
2019-02-28T02:57:57.547Z,25.27
2019-02-28T03:00:24.525Z,26.37
2019-02-28T03:02:51.100Z,25.53
2019-02-28T03:05:17.785Z,23.40
2019-02-28T03:07:44.736Z,27.40
2019-02-28T03:10:11.288Z,26.40
2019-02-28T03:12:37.879Z,26.27
2019-02-28T03:15:04.469Z,23.87
2019-02-28T03:17:31.333Z,27.27
2019-02-28T03:19:59.037Z,29.10
2019-02-28T03:22:29.796Z,28.00
2019-02-28T03:24:54.310Z,23.70
2019-02-28T03:27:20.931Z,25.43
2019-02-28T03:29:47.598Z,25.37
2019-02-28T03:32:14.622Z,28.27
2019-02-28T03:34:41.222Z,21.00
2019-02-28T03:37:07.898Z,23.67
2019-02-28T03:39:34.733Z,27.67
2019-02-28T03:42:01.846Z,24.23
2019-02-28T03:44:28.948Z,31.27
2019-02-28T03:46:55.517Z,21.77
2019-02-28T03:49:22.091Z,26.10
2019-02-28T03:51:48.657Z,22.17
2019-02-28T03:54:15.264Z,26.43
2019-02-28T03:56:41.897Z,28.20
2019-02-28T03:59:09.642Z,23.37
2019-02-28T04:01:36.182Z,24.33
2019-02-28T04:04:10.868Z,26.97
2019-02-28T04:06:31.194Z,24.70
2019-02-28T04:08:57.942Z,24.27
2019-02-28T04:11:30.490Z,32.27
2019-02-28T04:13:56.023Z,22.83
2019-02-28T04:16:22.700Z,24.33
2019-02-28T04:18:49.620Z,23.73
2019-02-28T04:21:16.404Z,24.67
2019-02-28T04:23:43.388Z,24.30
2019-02-28T04:26:10.368Z,29.90
2019-02-28T04:28:36.998Z,24.97
2019-02-28T04:31:03.604Z,23.87
2019-02-28T04:33:30.229Z,25.40
2019-02-28T04:36:00.619Z,24.17
2019-02-28T04:38:25.599Z,22.30
2019-02-28T04:40:52.538Z,24.93
2019-02-28T04:43:19.260Z,27.60
2019-02-28T04:45:46.071Z,25.33
2019-02-28T04:48:14.615Z,28.03
2019-02-28T04:50:41.092Z,25.57
2019-02-28T04:53:07.667Z,24.17
2019-02-28T04:55:37.007Z,25.63
2019-02-28T04:58:02.699Z,24.27
2019-02-28T05:00:29.633Z,25.37
2019-02-28T05:02:56.247Z,26.17
2019-02-28T05:05:23.189Z,24.57
2019-02-28T05:07:49.787Z,24.43
2019-02-28T05:10:19.312Z,25.63
2019-02-28T05:12:51.816Z,24.43
2019-02-28T05:15:18.403Z,25.13
2019-02-28T05:17:45.087Z,22.27
2019-02-28T05:20:12.215Z,20.33
2019-02-28T05:22:39.301Z,25.73
2019-02-28T05:25:06.301Z,25.03
2019-02-28T05:27:35.600Z,22.60
2019-02-28T05:30:01.690Z,20.73
2019-02-28T05:32:32.156Z,24.97
2019-02-28T05:34:56.715Z,25.50
2019-02-28T05:37:23.409Z,27.93
2019-02-28T05:39:50.368Z,23.67
2019-02-28T05:42:16.961Z,26.17
2019-02-28T05:44:44.993Z,23.23
2019-02-28T05:47:12.031Z,24.13
2019-02-28T05:49:40.662Z,24.00
2019-02-28T05:52:07.647Z,26.77
2019-02-28T05:54:34.355Z,25.73
2019-02-28T05:57:04.708Z,22.37
2019-02-28T05:59:30.639Z,23.53
2019-02-28T06:01:57.232Z,25.53
2019-02-28T06:04:23.920Z,24.63
2019-02-28T06:06:51.439Z,24.93
2019-02-28T06:09:19.261Z,24.43
2019-02-28T06:11:46.004Z,25.87
2019-02-28T06:14:13.032Z,24.27
2019-02-28T06:16:39.562Z,24.10
2019-02-28T06:19:08.355Z,25.77
2019-02-28T06:21:36.707Z,22.30
2019-02-28T06:24:04.586Z,25.53
2019-02-28T06:26:32.938Z,26.27
2019-02-28T06:29:04.591Z,27.40
2019-02-28T06:31:28.390Z,22.17
2019-02-28T06:33:54.956Z,24.63
2019-02-28T06:36:21.576Z,25.20
2019-02-28T06:38:48.197Z,22.67
2019-02-28T06:41:16.736Z,23.43
2019-02-28T06:43:44.310Z,26.40
2019-02-28T06:46:10.991Z,25.73
2019-02-28T06:48:37.654Z,27.23
2019-02-28T06:51:06.728Z,22.77
2019-02-28T06:53:36.389Z,23.97
2019-02-28T06:56:02.982Z,25.13
2019-02-28T06:58:33.287Z,22.57
2019-02-28T07:01:02.044Z,24.33
2019-02-28T07:03:28.836Z,28.73
2019-02-28T07:06:06.753Z,21.97
2019-02-28T07:08:36.565Z,25.27
2019-02-28T07:11:04.306Z,26.43
2019-02-28T07:13:31.992Z,22.93
2019-02-28T07:15:58.945Z,23.97
2019-02-28T07:18:26.639Z,24.40
2019-02-28T07:20:53.265Z,27.23
2019-02-28T07:23:26.683Z,23.47
2019-02-28T07:25:52.582Z,26.57
2019-02-28T07:28:19.559Z,22.57
2019-02-28T07:30:46.249Z,25.47
2019-02-28T07:33:13.396Z,25.30
2019-02-28T07:35:39.975Z,23.50
2019-02-28T07:38:06.938Z,25.57
2019-02-28T07:40:35.130Z,24.93
2019-02-28T07:43:01.822Z,23.10
2019-02-28T07:45:33.079Z,23.80
2019-02-28T07:47:57.177Z,28.13
2019-02-28T07:50:23.769Z,23.43
2019-02-28T07:52:50.479Z,26.27
2019-02-28T07:55:17.143Z,22.20
2019-02-28T07:57:43.839Z,21.93
2019-02-28T08:00:17.175Z,24.53
2019-02-28T08:02:39.881Z,22.70
2019-02-28T08:05:06.746Z,23.50
2019-02-28T08:07:33.390Z,24.17
2019-02-28T08:09:59.977Z,21.13
2019-02-28T08:12:27.490Z,21.00
2019-02-28T08:14:55.049Z,27.67
2019-02-28T08:17:23.007Z,23.43
2019-02-28T08:19:49.615Z,20.13
2019-02-28T08:22:16.225Z,26.33
2019-02-28T08:24:42.893Z,22.57
2019-02-28T08:27:09.619Z,23.00
2019-02-28T08:29:36.319Z,20.63
2019-02-28T08:32:06.733Z,24.10
2019-02-28T08:34:32.116Z,22.93
2019-02-28T08:37:01.014Z,25.83
2019-02-28T08:39:27.846Z,25.93
2019-02-28T08:42:02.987Z,24.70
2019-02-28T08:44:24.104Z,23.33
2019-02-28T08:46:50.781Z,22.50
2019-02-28T08:49:18.658Z,24.73
2019-02-28T08:51:45.778Z,28.20
2019-02-28T08:54:12.993Z,26.23
2019-02-28T08:56:39.528Z,28.60
2019-02-28T08:59:11.801Z,28.70
2019-02-28T09:01:39.915Z,27.07
2019-02-28T09:04:05.059Z,29.13
2019-02-28T09:06:32.452Z,27.50
2019-02-28T09:08:59.907Z,25.33
2019-02-28T09:11:27.445Z,26.13
2019-02-28T09:13:55.436Z,30.27
2019-02-28T09:16:22.259Z,27.47
2019-02-28T09:18:49.319Z,26.87
2019-02-28T09:21:18.484Z,26.27
2019-02-28T09:23:45.665Z,29.10
2019-02-28T09:26:14.329Z,27.33
2019-02-28T09:28:40.926Z,27.50
2019-02-28T09:31:07.603Z,31.47
2019-02-28T09:33:35.598Z,30.27
2019-02-28T09:36:02.578Z,28.90
2019-02-28T09:38:29.611Z,33.10
2019-02-28T09:40:56.178Z,27.67
2019-02-28T09:46:12.499Z,29.07
2019-02-28T09:48:38.058Z,32.17
2019-02-28T09:51:05.673Z,33.43
2019-02-28T09:53:32.361Z,29.23
2019-02-28T09:55:59.339Z,29.23
2019-02-28T09:58:29.332Z,34.13
2019-02-28T10:00:54.650Z,31.40
2019-02-28T10:03:21.408Z,27.20
2019-02-28T10:05:50.064Z,33.27
2019-02-28T10:08:17.458Z,31.77
2019-02-28T10:10:44.213Z,39.60
2019-02-28T10:13:11.258Z,29.93
2019-02-28T10:15:38.733Z,31.50
2019-02-28T10:18:06.467Z,27.57
2019-02-28T10:20:33.175Z,25.07
2019-02-28T10:22:59.842Z,27.03
2019-02-28T10:25:26.516Z,27.67
2019-02-28T10:27:54.627Z,27.00
2019-02-28T10:30:31.363Z,29.20
2019-02-28T10:32:50.485Z,31.50
2019-02-28T10:35:18.478Z,27.23
2019-02-28T10:37:45.251Z,23.23
2019-02-28T10:40:14.177Z,25.20
2019-02-28T10:42:41.473Z,24.27
2019-02-28T10:45:08.161Z,28.17
2019-02-28T10:47:34.911Z,21.13
2019-02-28T10:50:01.666Z,20.93
2019-02-28T10:52:30.564Z,23.60
2019-02-28T10:54:56.714Z,23.67
2019-02-28T10:57:23.439Z,21.83
2019-02-28T10:59:50.349Z,24.87
2019-02-28T11:02:19.749Z,22.13
2019-02-28T11:04:45.643Z,17.83
2019-02-28T11:07:12.434Z,18.83
2019-02-28T11:09:39.066Z,17.27
2019-02-28T11:12:05.863Z,15.23
2019-02-28T11:14:35.511Z,18.00
2019-02-28T11:17:00.984Z,14.40
2019-02-28T11:19:27.860Z,15.20
2019-02-28T11:21:54.928Z,16.23
2019-02-28T11:24:23.721Z,17.40
2019-02-28T11:26:51.850Z,15.50
2019-02-28T11:29:18.580Z,15.73
2019-02-28T11:31:45.298Z,14.20
2019-02-28T11:34:15.047Z,15.93
2019-02-28T11:36:41.030Z,12.07
2019-02-28T11:39:07.658Z,14.20
2019-02-28T11:41:34.364Z,18.73
2019-02-28T11:44:02.161Z,13.10
2019-02-28T11:46:28.790Z,13.53
2019-02-28T11:48:55.656Z,12.07
2019-02-28T11:51:24.326Z,9.87
2019-02-28T11:53:52.340Z,10.67
2019-02-28T11:56:19.049Z,11.33
2019-02-28T11:58:51.251Z,11.27
2019-02-28T12:01:16.319Z,11.00
2019-02-28T12:03:43.069Z,12.43
2019-02-28T12:06:09.801Z,9.47
2019-02-28T12:08:38.179Z,9.50
2019-02-28T12:11:04.803Z,9.33
2019-02-28T12:13:33.403Z,7.87
2019-02-28T12:16:00.135Z,7.40
2019-02-28T12:18:26.737Z,8.73
2019-02-28T12:20:53.414Z,10.33
2019-02-28T12:23:23.492Z,9.67
2019-02-28T12:25:50.028Z,5.73
2019-02-28T12:28:16.748Z,9.37
2019-02-28T12:30:43.361Z,6.03
2019-02-28T12:33:10.029Z,10.03
2019-02-28T12:35:40.313Z,5.33
2019-02-28T12:38:06.061Z,6.60
2019-02-28T12:40:32.786Z,7.07
2019-02-28T12:42:59.434Z,5.43
2019-02-28T12:45:26.245Z,9.67
2019-02-28T12:47:52.848Z,7.57
2019-02-28T12:50:19.547Z,9.37
2019-02-28T12:52:49.938Z,4.50
2019-02-28T12:55:15.822Z,4.50
2019-02-28T12:57:42.523Z,8.17
2019-02-28T13:00:09.238Z,7.20
2019-02-28T13:02:39.679Z,8.23
2019-02-28T13:05:08.496Z,5.63
2019-02-28T13:07:34.669Z,7.20
2019-02-28T13:10:03.967Z,7.73
2019-02-28T13:12:30.322Z,5.97
2019-02-28T13:14:57.503Z,4.73
2019-02-28T13:17:24.246Z,6.07
2019-02-28T13:19:53.245Z,5.00
2019-02-28T13:22:23.514Z,4.40
2019-02-28T13:24:48.080Z,4.07
2019-02-28T13:27:14.962Z,6.97
2019-02-28T13:29:41.571Z,5.63
2019-02-28T13:32:08.270Z,5.57
2019-02-28T13:34:35.049Z,7.83
2019-02-28T13:37:03.263Z,3.80
2019-02-28T13:39:31.671Z,4.33
2019-02-28T13:42:03.224Z,4.37
2019-02-28T13:44:27.575Z,4.83
2019-02-28T13:46:54.375Z,4.10
2019-02-28T13:49:20.989Z,4.93
2019-02-28T13:51:47.741Z,5.30
2019-02-28T13:54:14.561Z,6.17
2019-02-28T13:56:41.289Z,4.73
2019-02-28T13:59:07.876Z,6.80
2019-02-28T14:01:34.486Z,2.73
2019-02-28T14:04:01.122Z,3.23
2019-02-28T14:06:27.896Z,8.40
2019-02-28T14:08:54.589Z,3.97
2019-02-28T14:11:21.543Z,4.97
2019-02-28T14:13:48.246Z,3.80
2019-02-28T14:16:14.926Z,4.83
2019-02-28T14:18:42.586Z,3.17
2019-02-28T14:21:10.044Z,3.90
2019-02-28T14:23:37.145Z,6.13
2019-02-28T14:26:03.815Z,3.37
2019-02-28T14:28:32.453Z,5.20
2019-02-28T14:30:59.525Z,4.93
2019-02-28T14:33:26.551Z,5.23
2019-02-28T14:35:53.293Z,3.73
2019-02-28T14:38:38.515Z,3.13
2019-02-28T14:41:05.200Z,3.83
2019-02-28T14:43:31.825Z,2.37
2019-02-28T14:45:58.435Z,3.07
2019-02-28T14:48:25.024Z,3.63
2019-02-28T14:50:54.141Z,2.27
2019-02-28T14:53:20.324Z,3.20
2019-02-28T14:55:46.932Z,3.53
2019-02-28T14:58:13.960Z,3.00
2019-02-28T15:00:42.132Z,1.87
2019-02-28T15:03:09.141Z,2.50
2019-02-28T15:05:35.773Z,4.00
2019-02-28T15:08:02.846Z,2.07
2019-02-28T15:10:29.800Z,1.97
2019-02-28T15:12:58.654Z,1.80
2019-02-28T15:15:25.550Z,4.40
2019-02-28T15:17:52.250Z,6.40
2019-02-28T15:20:18.996Z,2.03
2019-02-28T15:22:45.750Z,2.03
2019-02-28T15:25:15.258Z,3.60
2019-02-28T15:27:41.498Z,2.77
2019-02-28T15:30:08.648Z,2.80
2019-02-28T15:32:35.687Z,5.00
2019-02-28T15:35:02.763Z,3.77
2019-02-28T15:37:30.448Z,2.20
2019-02-28T15:39:58.293Z,2.97
2019-02-28T15:42:25.000Z,1.60
2019-02-28T15:44:51.743Z,5.27
2019-02-28T15:47:19.519Z,2.80
2019-02-28T15:49:46.947Z,3.17
2019-02-28T15:52:14.948Z,4.33
2019-02-28T15:54:41.737Z,2.93
2019-02-28T15:57:08.736Z,3.00
2019-02-28T15:59:35.595Z,2.83
2019-02-28T16:02:03.629Z,5.87
2019-02-28T16:04:32.477Z,5.20
2019-02-28T16:06:59.520Z,2.03
2019-02-28T16:09:28.801Z,2.80
2019-02-28T16:11:55.770Z,5.17
2019-02-28T16:14:22.536Z,2.07
2019-02-28T16:16:49.464Z,2.33
2019-02-28T16:19:18.868Z,3.50
2019-02-28T16:21:44.717Z,3.60
2019-02-28T16:24:11.865Z,4.67
2019-02-28T16:26:39.214Z,2.90
2019-02-28T16:29:06.293Z,3.03
2019-02-28T16:31:42.490Z,4.67
2019-02-28T16:34:11.046Z,2.20
2019-02-28T16:36:38.829Z,3.73
2019-02-28T16:39:05.868Z,4.20
2019-02-28T16:41:33.709Z,2.60
2019-02-28T16:44:01.134Z,3.03
2019-02-28T16:46:27.736Z,1.83
2019-02-28T16:48:54.514Z,4.50
2019-02-28T16:51:21.686Z,3.17
2019-02-28T16:53:48.886Z,2.43
2019-02-28T16:56:16.043Z,4.03
2019-02-28T16:58:42.807Z,2.63
2019-02-28T17:01:09.737Z,2.23
2019-02-28T17:03:38.397Z,3.50
2019-02-28T17:06:05.426Z,2.50
2019-02-28T17:08:36.323Z,2.50
2019-02-28T17:11:02.942Z,2.03
2019-02-28T17:13:39.484Z,2.30
2019-02-28T17:16:15.500Z,1.57
2019-02-28T17:18:42.394Z,5.67
2019-02-28T17:21:09.258Z,3.00
2019-02-28T17:23:37.087Z,1.80
2019-02-28T17:26:04.579Z,2.40
2019-02-28T17:29:06.225Z,1.40
2019-02-28T17:31:48.079Z,2.20
2019-02-28T17:34:17.386Z,3.43
2019-02-28T17:36:47.341Z,3.27
2019-02-28T17:39:14.860Z,2.07
2019-02-28T17:41:41.012Z,3.30
2019-02-28T17:44:08.717Z,2.97
2019-02-28T17:46:37.215Z,1.97
2019-02-28T17:49:04.277Z,4.30
2019-02-28T17:51:31.034Z,4.13
2019-02-28T17:53:59.830Z,2.60
2019-02-28T17:56:26.934Z,1.60
2019-02-28T17:58:53.582Z,1.63
2019-02-28T18:01:20.343Z,3.73
2019-02-28T18:03:48.421Z,4.53
2019-02-28T18:06:15.948Z,2.70
2019-02-28T18:08:42.593Z,3.17
2019-02-28T18:11:09.196Z,2.23
2019-02-28T18:13:35.790Z,5.53
2019-02-28T18:16:02.687Z,5.33
2019-02-28T18:18:29.301Z,2.97
2019-02-28T18:20:56.050Z,2.13
2019-02-28T18:23:24.885Z,2.80
2019-02-28T18:25:52.324Z,5.07
2019-02-28T18:28:22.599Z,3.67
2019-02-28T18:30:49.662Z,2.43
2019-02-28T18:33:19.425Z,4.60
2019-02-28T18:35:45.352Z,2.70
2019-02-28T18:38:12.991Z,2.77
2019-02-28T18:40:41.583Z,1.70
2019-02-28T18:43:11.088Z,5.23
2019-02-28T18:45:37.748Z,1.80
2019-02-28T18:48:06.153Z,2.73
2019-02-28T18:50:33.573Z,2.97
2019-02-28T18:53:00.228Z,3.73
2019-02-28T18:55:34.634Z,2.87
2019-02-28T18:57:56.532Z,2.17
2019-02-28T19:00:23.122Z,2.30
2019-02-28T19:02:49.723Z,4.63
2019-02-28T19:05:17.514Z,3.57
2019-02-28T19:07:44.149Z,2.00
2019-02-28T19:12:50.088Z,3.10
2019-02-28T19:15:16.671Z,2.47
2019-02-28T19:17:43.254Z,3.60
2019-02-28T19:20:09.835Z,3.47
2019-02-28T19:22:36.972Z,3.70
2019-02-28T19:25:03.675Z,2.63
2019-02-28T19:27:30.372Z,3.00
2019-02-28T19:29:56.872Z,1.93
2019-02-28T19:32:23.938Z,2.30
2019-02-28T19:34:50.573Z,4.90
2019-02-28T19:37:17.283Z,3.17
2019-02-28T19:39:44.353Z,2.90
2019-02-28T19:42:11.075Z,2.73
2019-02-28T19:44:37.671Z,4.53
2019-02-28T19:47:04.283Z,2.13
2019-02-28T19:49:31.265Z,2.90
2019-02-28T19:51:57.877Z,3.30
2019-02-28T19:54:26.265Z,4.87
2019-02-28T19:56:53.322Z,4.03
2019-02-28T19:59:20.463Z,4.47
2019-02-28T20:01:47.188Z,2.77
2019-02-28T20:04:15.413Z,3.23
2019-02-28T20:06:42.466Z,2.77
2019-02-28T20:09:09.051Z,3.23
2019-02-28T20:11:35.651Z,3.03
2019-02-28T20:14:02.246Z,3.87
2019-02-28T20:16:29.183Z,6.73
2019-02-28T20:18:55.758Z,3.27
2019-02-28T20:21:22.429Z,4.63
2019-02-28T20:23:49.199Z,7.93
2019-02-28T20:26:15.823Z,4.27
2019-02-28T20:28:42.544Z,3.87
2019-02-28T20:31:09.209Z,2.57
2019-02-28T20:33:35.838Z,3.63
2019-02-28T20:36:02.589Z,3.17
2019-02-28T20:38:29.297Z,5.43
2019-02-28T20:40:56.016Z,2.23
2019-02-28T20:43:23.698Z,2.77
2019-02-28T20:45:50.446Z,4.20
2019-02-28T20:48:17.513Z,6.60
2019-02-28T20:50:46.184Z,2.20
2019-02-28T20:53:13.363Z,4.37
2019-02-28T20:55:40.148Z,4.27
2019-02-28T20:58:06.998Z,2.67
2019-02-28T21:00:33.579Z,4.40
2019-02-28T21:03:01.981Z,4.07
2019-02-28T21:05:30.050Z,3.07
2019-02-28T21:07:57.052Z,4.27
2019-02-28T21:10:23.961Z,5.13
2019-02-28T21:12:54.131Z,2.00
2019-02-28T21:15:21.613Z,2.30
2019-02-28T21:17:48.321Z,5.60
2019-02-28T21:20:14.968Z,3.77
2019-02-28T21:22:41.729Z,3.93
2019-02-28T21:25:08.305Z,6.20
2019-02-28T21:27:35.061Z,5.33
2019-02-28T21:30:01.785Z,3.53
2019-02-28T21:32:28.393Z,3.53
2019-02-28T21:34:55.119Z,6.67
2019-02-28T21:37:21.769Z,3.20
2019-02-28T21:39:48.552Z,6.30
2019-02-28T21:42:15.212Z,5.23
2019-02-28T21:44:41.807Z,4.47
2019-02-28T21:47:08.379Z,7.93
2019-02-28T21:49:34.988Z,3.17
2019-02-28T21:52:01.898Z,3.60
2019-02-28T21:54:29.693Z,2.80
2019-02-28T21:56:56.357Z,4.13
2019-02-28T21:59:22.969Z,5.60
2019-02-28T22:01:49.670Z,4.03
2019-02-28T22:04:16.421Z,4.00
2019-02-28T22:06:43.421Z,4.13
2019-02-28T22:09:10.395Z,2.53
2019-02-28T22:11:37.060Z,2.70
2019-02-28T22:14:03.755Z,2.60
2019-02-28T22:16:30.453Z,4.50
2019-02-28T22:18:57.040Z,2.73
2019-02-28T22:21:23.990Z,4.10
2019-02-28T22:23:50.625Z,3.30
2019-02-28T22:26:17.203Z,2.83
2019-02-28T22:28:43.795Z,3.23
2019-02-28T22:31:21.511Z,3.63
2019-02-28T22:34:13.836Z,3.90
2019-02-28T22:36:44.763Z,3.37
2019-02-28T22:39:11.270Z,4.23
2019-02-28T22:41:38.081Z,3.47
2019-02-28T22:44:04.819Z,2.67
2019-02-28T22:46:31.478Z,2.67
2019-02-28T22:48:58.062Z,5.43
2019-02-28T22:51:24.653Z,3.43
2019-02-28T22:53:51.221Z,2.87
2019-02-28T22:56:17.808Z,5.07
2019-02-28T22:58:44.528Z,2.23
2019-02-28T23:01:11.910Z,2.73
2019-02-28T23:03:38.676Z,2.77
2019-02-28T23:06:07.430Z,3.47
2019-02-28T23:08:34.026Z,2.73
2019-02-28T23:11:00.992Z,6.17
2019-02-28T23:13:29.605Z,2.60
2019-02-28T23:15:56.156Z,4.83
2019-02-28T23:18:22.747Z,4.07
2019-02-28T23:20:49.632Z,3.87
2019-02-28T23:23:16.262Z,4.87
2019-02-28T23:25:44.735Z,2.73
2019-02-28T23:28:11.590Z,6.70
2019-02-28T23:30:38.196Z,5.30
2019-02-28T23:33:04.787Z,5.13
2019-02-28T23:35:31.509Z,6.10
2019-02-28T23:37:58.159Z,5.67
2019-02-28T23:40:24.859Z,3.53
2019-02-28T23:42:51.482Z,4.20
2019-02-28T23:45:18.188Z,4.43
2019-02-28T23:47:46.638Z,4.70
2019-02-28T23:50:13.322Z,5.43
2019-02-28T23:52:39.973Z,3.37
2019-02-28T23:55:06.751Z,5.80
2019-02-28T23:57:33.617Z,4.43
